sensor_id;sensor_type;location;lat;lon;timestamp;P1;durP1;ratioP1;P2;durP2;ratioP2
19985;SDS011;10154;52.474;10.768;2023-01-05T00:00:20;8.80;;;1.70;;
19985;SDS011;10154;52.474;10.768;2023-01-05T00:02:45;7.27;;;1.60;;
19985;SDS011;10154;52.474;10.768;2023-01-05T00:05:11;5.20;;;1.40;;
19985;SDS011;10154;52.474;10.768;2023-01-05T00:07:36;6.93;;;1.10;;
19985;SDS011;10154;52.474;10.768;2023-01-05T00:10:02;7.70;;;1.40;;
19985;SDS011;10154;52.474;10.768;2023-01-05T00:12:27;3.73;;;0.70;;
19985;SDS011;10154;52.474;10.768;2023-01-05T00:15:11;7.93;;;1.53;;
19985;SDS011;10154;52.474;10.768;2023-01-05T00:17:56;10.23;;;1.40;;
19985;SDS011;10154;52.474;10.768;2023-01-05T00:20:40;14.53;;;1.57;;
19985;SDS011;10154;52.474;10.768;2023-01-05T00:23:24;7.27;;;2.03;;
19985;SDS011;10154;52.474;10.768;2023-01-05T00:25:49;9.50;;;1.30;;
19985;SDS011;10154;52.474;10.768;2023-01-05T00:28:15;10.40;;;1.27;;
19985;SDS011;10154;52.474;10.768;2023-01-05T00:30:41;11.07;;;1.80;;
19985;SDS011;10154;52.474;10.768;2023-01-05T00:33:08;8.87;;;1.47;;
19985;SDS011;10154;52.474;10.768;2023-01-05T00:35:40;13.60;;;1.80;;
19985;SDS011;10154;52.474;10.768;2023-01-05T00:38:06;14.57;;;1.60;;
19985;SDS011;10154;52.474;10.768;2023-01-05T00:40:33;10.37;;;1.57;;
19985;SDS011;10154;52.474;10.768;2023-01-05T00:42:59;13.50;;;2.20;;
19985;SDS011;10154;52.474;10.768;2023-01-05T00:45:24;11.03;;;1.83;;
19985;SDS011;10154;52.474;10.768;2023-01-05T00:47:50;8.37;;;1.33;;
19985;SDS011;10154;52.474;10.768;2023-01-05T00:50:18;16.27;;;2.20;;
19985;SDS011;10154;52.474;10.768;2023-01-05T00:52:44;5.90;;;1.20;;
19985;SDS011;10154;52.474;10.768;2023-01-05T00:55:10;16.07;;;2.20;;
19985;SDS011;10154;52.474;10.768;2023-01-05T00:57:36;19.13;;;2.60;;
19985;SDS011;10154;52.474;10.768;2023-01-05T01:00:05;16.70;;;2.60;;
19985;SDS011;10154;52.474;10.768;2023-01-05T01:02:31;17.27;;;2.60;;
19985;SDS011;10154;52.474;10.768;2023-01-05T01:04:57;15.17;;;2.13;;
19985;SDS011;10154;52.474;10.768;2023-01-05T01:07:23;7.83;;;1.80;;
19985;SDS011;10154;52.474;10.768;2023-01-05T01:09:48;14.47;;;2.50;;
19985;SDS011;10154;52.474;10.768;2023-01-05T01:12:14;10.23;;;1.57;;
19985;SDS011;10154;52.474;10.768;2023-01-05T01:14:39;12.53;;;1.97;;
19985;SDS011;10154;52.474;10.768;2023-01-05T01:17:05;14.27;;;1.80;;
19985;SDS011;10154;52.474;10.768;2023-01-05T01:19:30;17.43;;;2.40;;
19985;SDS011;10154;52.474;10.768;2023-01-05T01:21:55;11.70;;;1.73;;
19985;SDS011;10154;52.474;10.768;2023-01-05T01:24:22;10.70;;;1.60;;
19985;SDS011;10154;52.474;10.768;2023-01-05T01:26:50;15.77;;;2.63;;
19985;SDS011;10154;52.474;10.768;2023-01-05T01:29:16;11.57;;;2.17;;
19985;SDS011;10154;52.474;10.768;2023-01-05T01:31:41;9.40;;;1.53;;
19985;SDS011;10154;52.474;10.768;2023-01-05T01:34:07;18.20;;;2.20;;
19985;SDS011;10154;52.474;10.768;2023-01-05T01:36:33;17.27;;;1.97;;
19985;SDS011;10154;52.474;10.768;2023-01-05T01:38:59;19.00;;;2.53;;
19985;SDS011;10154;52.474;10.768;2023-01-05T01:41:24;14.43;;;2.03;;
19985;SDS011;10154;52.474;10.768;2023-01-05T01:43:53;13.53;;;2.20;;
19985;SDS011;10154;52.474;10.768;2023-01-05T01:46:20;14.20;;;1.67;;
19985;SDS011;10154;52.474;10.768;2023-01-05T01:49:05;16.50;;;2.07;;
19985;SDS011;10154;52.474;10.768;2023-01-05T01:51:41;11.17;;;1.67;;
19985;SDS011;10154;52.474;10.768;2023-01-05T01:54:09;12.27;;;2.00;;
19985;SDS011;10154;52.474;10.768;2023-01-05T01:56:37;14.63;;;1.80;;
19985;SDS011;10154;52.474;10.768;2023-01-05T01:59:04;15.23;;;2.33;;
19985;SDS011;10154;52.474;10.768;2023-01-05T02:01:30;12.20;;;2.10;;
19985;SDS011;10154;52.474;10.768;2023-01-05T02:03:56;19.30;;;2.53;;
19985;SDS011;10154;52.474;10.768;2023-01-05T02:06:21;10.63;;;2.10;;
19985;SDS011;10154;52.474;10.768;2023-01-05T02:08:47;11.73;;;1.87;;
19985;SDS011;10154;52.474;10.768;2023-01-05T02:19:27;14.33;;;2.07;;
19985;SDS011;10154;52.474;10.768;2023-01-05T02:38:21;11.17;;;2.00;;
19985;SDS011;10154;52.474;10.768;2023-01-05T02:40:59;19.37;;;2.70;;
19985;SDS011;10154;52.474;10.768;2023-01-05T02:43:55;12.83;;;1.60;;
19985;SDS011;10154;52.474;10.768;2023-01-05T02:46:21;7.00;;;1.23;;
19985;SDS011;10154;52.474;10.768;2023-01-05T02:48:47;18.13;;;2.27;;
19985;SDS011;10154;52.474;10.768;2023-01-05T02:51:15;13.27;;;2.40;;
19985;SDS011;10154;52.474;10.768;2023-01-05T02:53:45;10.37;;;1.73;;
19985;SDS011;10154;52.474;10.768;2023-01-05T02:56:21;11.00;;;1.93;;
19985;SDS011;10154;52.474;10.768;2023-01-05T02:58:57;11.63;;;1.87;;
19985;SDS011;10154;52.474;10.768;2023-01-05T03:01:35;10.13;;;1.83;;
19985;SDS011;10154;52.474;10.768;2023-01-05T03:04:12;13.17;;;1.60;;
19985;SDS011;10154;52.474;10.768;2023-01-05T03:06:45;16.03;;;1.90;;
19985;SDS011;10154;52.474;10.768;2023-01-05T03:09:13;4.37;;;0.73;;
19985;SDS011;10154;52.474;10.768;2023-01-05T03:11:44;11.40;;;2.20;;
19985;SDS011;10154;52.474;10.768;2023-01-05T03:14:37;18.60;;;2.67;;
19985;SDS011;10154;52.474;10.768;2023-01-05T03:17:08;14.10;;;1.83;;
19985;SDS011;10154;52.474;10.768;2023-01-05T03:19:35;12.33;;;1.93;;
19985;SDS011;10154;52.474;10.768;2023-01-05T03:22:10;6.90;;;1.53;;
19985;SDS011;10154;52.474;10.768;2023-01-05T03:25:05;12.27;;;1.83;;
19985;SDS011;10154;52.474;10.768;2023-01-05T03:27:50;12.83;;;2.00;;
19985;SDS011;10154;52.474;10.768;2023-01-05T03:30:39;9.50;;;1.50;;
19985;SDS011;10154;52.474;10.768;2023-01-05T03:33:44;13.17;;;1.70;;
19985;SDS011;10154;52.474;10.768;2023-01-05T03:36:35;7.67;;;1.50;;
19985;SDS011;10154;52.474;10.768;2023-01-05T03:39:06;14.60;;;1.90;;
19985;SDS011;10154;52.474;10.768;2023-01-05T03:41:33;8.70;;;1.50;;
19985;SDS011;10154;52.474;10.768;2023-01-05T03:43:59;7.93;;;0.93;;
19985;SDS011;10154;52.474;10.768;2023-01-05T03:46:24;10.10;;;1.60;;
19985;SDS011;10154;52.474;10.768;2023-01-05T03:48:50;7.97;;;1.50;;
19985;SDS011;10154;52.474;10.768;2023-01-05T03:51:15;11.20;;;1.50;;
19985;SDS011;10154;52.474;10.768;2023-01-05T03:53:41;7.70;;;1.30;;
19985;SDS011;10154;52.474;10.768;2023-01-05T03:56:07;8.67;;;1.50;;
19985;SDS011;10154;52.474;10.768;2023-01-05T03:58:32;4.37;;;0.87;;
19985;SDS011;10154;52.474;10.768;2023-01-05T04:00:58;7.60;;;1.27;;
19985;SDS011;10154;52.474;10.768;2023-01-05T04:03:23;7.27;;;1.07;;
19985;SDS011;10154;52.474;10.768;2023-01-05T04:05:48;6.67;;;1.00;;
19985;SDS011;10154;52.474;10.768;2023-01-05T04:08:14;9.83;;;1.70;;
19985;SDS011;10154;52.474;10.768;2023-01-05T04:10:40;5.73;;;1.37;;
19985;SDS011;10154;52.474;10.768;2023-01-05T04:13:06;7.00;;;1.47;;
19985;SDS011;10154;52.474;10.768;2023-01-05T04:15:31;8.70;;;1.70;;
19985;SDS011;10154;52.474;10.768;2023-01-05T04:17:57;7.97;;;1.40;;
19985;SDS011;10154;52.474;10.768;2023-01-05T04:20:22;5.30;;;1.23;;
19985;SDS011;10154;52.474;10.768;2023-01-05T04:22:48;10.40;;;1.73;;
19985;SDS011;10154;52.474;10.768;2023-01-05T04:25:13;9.97;;;1.70;;
19985;SDS011;10154;52.474;10.768;2023-01-05T04:27:38;6.27;;;1.07;;
19985;SDS011;10154;52.474;10.768;2023-01-05T04:30:04;18.27;;;2.10;;
19985;SDS011;10154;52.474;10.768;2023-01-05T04:32:30;8.07;;;1.53;;
19985;SDS011;10154;52.474;10.768;2023-01-05T04:34:55;12.47;;;2.13;;
19985;SDS011;10154;52.474;10.768;2023-01-05T04:37:21;10.17;;;1.17;;
19985;SDS011;10154;52.474;10.768;2023-01-05T04:39:47;11.63;;;1.60;;
19985;SDS011;10154;52.474;10.768;2023-01-05T04:42:12;13.37;;;2.10;;
19985;SDS011;10154;52.474;10.768;2023-01-05T04:44:38;10.83;;;1.93;;
19985;SDS011;10154;52.474;10.768;2023-01-05T04:47:12;7.77;;;1.27;;
19985;SDS011;10154;52.474;10.768;2023-01-05T04:49:37;14.60;;;2.03;;
19985;SDS011;10154;52.474;10.768;2023-01-05T04:52:03;15.30;;;2.17;;
19985;SDS011;10154;52.474;10.768;2023-01-05T04:54:28;15.87;;;1.90;;
19985;SDS011;10154;52.474;10.768;2023-01-05T04:56:54;9.23;;;1.27;;
19985;SDS011;10154;52.474;10.768;2023-01-05T04:59:19;14.40;;;2.07;;
19985;SDS011;10154;52.474;10.768;2023-01-05T05:01:44;11.23;;;1.77;;
19985;SDS011;10154;52.474;10.768;2023-01-05T05:04:10;13.07;;;1.53;;
19985;SDS011;10154;52.474;10.768;2023-01-05T05:06:35;7.70;;;2.17;;
19985;SDS011;10154;52.474;10.768;2023-01-05T05:09:00;6.00;;;1.30;;
19985;SDS011;10154;52.474;10.768;2023-01-05T05:11:26;13.40;;;1.80;;
19985;SDS011;10154;52.474;10.768;2023-01-05T05:13:51;14.23;;;2.00;;
19985;SDS011;10154;52.474;10.768;2023-01-05T05:16:16;15.70;;;2.13;;
19985;SDS011;10154;52.474;10.768;2023-01-05T05:18:42;6.93;;;1.27;;
19985;SDS011;10154;52.474;10.768;2023-01-05T05:21:07;15.30;;;2.60;;
19985;SDS011;10154;52.474;10.768;2023-01-05T05:23:32;9.93;;;1.47;;
19985;SDS011;10154;52.474;10.768;2023-01-05T05:25:58;15.43;;;2.60;;
19985;SDS011;10154;52.474;10.768;2023-01-05T05:28:23;10.80;;;1.90;;
19985;SDS011;10154;52.474;10.768;2023-01-05T05:30:52;13.67;;;1.80;;
19985;SDS011;10154;52.474;10.768;2023-01-05T05:33:19;13.17;;;2.37;;
19985;SDS011;10154;52.474;10.768;2023-01-05T05:35:44;19.83;;;2.30;;
19985;SDS011;10154;52.474;10.768;2023-01-05T05:38:10;13.63;;;1.80;;
19985;SDS011;10154;52.474;10.768;2023-01-05T05:40:35;11.27;;;2.27;;
19985;SDS011;10154;52.474;10.768;2023-01-05T05:43:00;14.83;;;2.43;;
19985;SDS011;10154;52.474;10.768;2023-01-05T05:45:26;10.27;;;1.87;;
19985;SDS011;10154;52.474;10.768;2023-01-05T05:47:52;15.63;;;2.10;;
19985;SDS011;10154;52.474;10.768;2023-01-05T05:50:17;13.00;;;2.00;;
19985;SDS011;10154;52.474;10.768;2023-01-05T05:52:42;12.30;;;2.00;;
19985;SDS011;10154;52.474;10.768;2023-01-05T05:55:08;10.20;;;2.27;;
19985;SDS011;10154;52.474;10.768;2023-01-05T05:57:33;16.37;;;2.57;;
19985;SDS011;10154;52.474;10.768;2023-01-05T05:59:59;10.23;;;1.63;;
19985;SDS011;10154;52.474;10.768;2023-01-05T06:02:24;16.00;;;2.37;;
19985;SDS011;10154;52.474;10.768;2023-01-05T06:04:50;13.27;;;2.30;;
19985;SDS011;10154;52.474;10.768;2023-01-05T06:07:15;11.13;;;2.03;;
19985;SDS011;10154;52.474;10.768;2023-01-05T06:09:41;11.00;;;1.63;;
19985;SDS011;10154;52.474;10.768;2023-01-05T06:12:06;11.63;;;1.80;;
19985;SDS011;10154;52.474;10.768;2023-01-05T06:14:32;11.20;;;2.00;;
19985;SDS011;10154;52.474;10.768;2023-01-05T06:16:57;3.80;;;1.47;;
19985;SDS011;10154;52.474;10.768;2023-01-05T06:19:22;13.37;;;2.03;;
19985;SDS011;10154;52.474;10.768;2023-01-05T06:21:48;9.50;;;2.50;;
19985;SDS011;10154;52.474;10.768;2023-01-05T06:24:13;11.20;;;1.80;;
19985;SDS011;10154;52.474;10.768;2023-01-05T06:26:39;13.70;;;1.80;;
19985;SDS011;10154;52.474;10.768;2023-01-05T06:29:04;12.43;;;2.50;;
19985;SDS011;10154;52.474;10.768;2023-01-05T06:31:30;13.13;;;2.00;;
19985;SDS011;10154;52.474;10.768;2023-01-05T06:33:56;12.13;;;1.87;;
19985;SDS011;10154;52.474;10.768;2023-01-05T06:36:21;7.00;;;1.53;;
19985;SDS011;10154;52.474;10.768;2023-01-05T06:38:46;10.17;;;1.73;;
19985;SDS011;10154;52.474;10.768;2023-01-05T06:41:12;8.37;;;2.10;;
19985;SDS011;10154;52.474;10.768;2023-01-05T06:43:37;8.37;;;1.90;;
19985;SDS011;10154;52.474;10.768;2023-01-05T06:46:03;6.57;;;1.50;;
19985;SDS011;10154;52.474;10.768;2023-01-05T06:48:28;5.60;;;1.03;;
19985;SDS011;10154;52.474;10.768;2023-01-05T06:50:53;18.53;;;2.60;;
19985;SDS011;10154;52.474;10.768;2023-01-05T06:53:19;8.47;;;1.87;;
19985;SDS011;10154;52.474;10.768;2023-01-05T06:55:44;7.07;;;1.30;;
19985;SDS011;10154;52.474;10.768;2023-01-05T06:58:10;7.63;;;1.60;;
19985;SDS011;10154;52.474;10.768;2023-01-05T07:00:35;12.13;;;1.80;;
19985;SDS011;10154;52.474;10.768;2023-01-05T07:03:01;8.03;;;1.60;;
19985;SDS011;10154;52.474;10.768;2023-01-05T07:05:26;12.87;;;1.50;;
19985;SDS011;10154;52.474;10.768;2023-01-05T07:07:52;10.57;;;1.90;;
19985;SDS011;10154;52.474;10.768;2023-01-05T07:10:17;3.90;;;0.90;;
19985;SDS011;10154;52.474;10.768;2023-01-05T07:12:42;9.60;;;1.77;;
19985;SDS011;10154;52.474;10.768;2023-01-05T07:15:08;15.53;;;2.37;;
19985;SDS011;10154;52.474;10.768;2023-01-05T07:17:34;10.17;;;1.63;;
19985;SDS011;10154;52.474;10.768;2023-01-05T07:20:01;7.43;;;1.37;;
19985;SDS011;10154;52.474;10.768;2023-01-05T07:22:27;8.33;;;1.57;;
19985;SDS011;10154;52.474;10.768;2023-01-05T07:24:57;9.90;;;1.97;;
19985;SDS011;10154;52.474;10.768;2023-01-05T07:27:22;16.37;;;1.77;;
19985;SDS011;10154;52.474;10.768;2023-01-05T07:29:48;8.33;;;1.47;;
19985;SDS011;10154;52.474;10.768;2023-01-05T07:32:13;15.27;;;1.87;;
19985;SDS011;10154;52.474;10.768;2023-01-05T07:34:39;9.30;;;1.90;;
19985;SDS011;10154;52.474;10.768;2023-01-05T07:37:04;7.10;;;1.17;;
19985;SDS011;10154;52.474;10.768;2023-01-05T07:39:29;6.90;;;1.90;;
19985;SDS011;10154;52.474;10.768;2023-01-05T07:41:55;13.13;;;1.60;;
19985;SDS011;10154;52.474;10.768;2023-01-05T07:44:20;7.13;;;1.40;;
19985;SDS011;10154;52.474;10.768;2023-01-05T07:46:46;12.23;;;1.60;;
19985;SDS011;10154;52.474;10.768;2023-01-05T07:49:11;7.53;;;1.50;;
19985;SDS011;10154;52.474;10.768;2023-01-05T07:51:37;5.50;;;1.37;;
19985;SDS011;10154;52.474;10.768;2023-01-05T07:54:02;8.57;;;1.67;;
19985;SDS011;10154;52.474;10.768;2023-01-05T07:56:27;14.23;;;1.80;;
19985;SDS011;10154;52.474;10.768;2023-01-05T07:58:53;9.30;;;1.57;;
19985;SDS011;10154;52.474;10.768;2023-01-05T08:01:18;10.40;;;1.90;;
19985;SDS011;10154;52.474;10.768;2023-01-05T08:03:43;8.70;;;1.67;;
19985;SDS011;10154;52.474;10.768;2023-01-05T08:06:13;10.77;;;1.37;;
19985;SDS011;10154;52.474;10.768;2023-01-05T08:08:40;8.77;;;1.40;;
19985;SDS011;10154;52.474;10.768;2023-01-05T08:11:06;9.70;;;1.43;;
19985;SDS011;10154;52.474;10.768;2023-01-05T08:13:32;6.17;;;1.20;;
19985;SDS011;10154;52.474;10.768;2023-01-05T08:16:16;5.00;;;1.20;;
19985;SDS011;10154;52.474;10.768;2023-01-05T08:18:42;5.33;;;1.03;;
19985;SDS011;10154;52.474;10.768;2023-01-05T08:21:07;9.07;;;1.50;;
19985;SDS011;10154;52.474;10.768;2023-01-05T08:23:34;7.27;;;1.43;;
19985;SDS011;10154;52.474;10.768;2023-01-05T08:26:09;9.57;;;1.40;;
19985;SDS011;10154;52.474;10.768;2023-01-05T08:28:37;9.50;;;1.73;;
19985;SDS011;10154;52.474;10.768;2023-01-05T08:31:07;7.00;;;1.17;;
19985;SDS011;10154;52.474;10.768;2023-01-05T08:33:44;5.87;;;1.50;;
19985;SDS011;10154;52.474;10.768;2023-01-05T08:36:11;9.90;;;1.70;;
19985;SDS011;10154;52.474;10.768;2023-01-05T08:38:38;6.07;;;1.17;;
19985;SDS011;10154;52.474;10.768;2023-01-05T08:41:11;10.00;;;1.70;;
19985;SDS011;10154;52.474;10.768;2023-01-05T08:43:38;3.90;;;1.10;;
19985;SDS011;10154;52.474;10.768;2023-01-05T08:46:03;12.70;;;1.50;;
19985;SDS011;10154;52.474;10.768;2023-01-05T08:48:29;10.37;;;1.40;;
19985;SDS011;10154;52.474;10.768;2023-01-05T08:50:54;5.77;;;1.33;;
19985;SDS011;10154;52.474;10.768;2023-01-05T08:53:19;8.40;;;1.47;;
19985;SDS011;10154;52.474;10.768;2023-01-05T08:55:45;9.43;;;1.20;;
19985;SDS011;10154;52.474;10.768;2023-01-05T08:58:10;8.77;;;1.50;;
19985;SDS011;10154;52.474;10.768;2023-01-05T09:00:35;2.17;;;0.93;;
19985;SDS011;10154;52.474;10.768;2023-01-05T09:03:01;7.07;;;1.30;;
19985;SDS011;10154;52.474;10.768;2023-01-05T09:05:26;5.10;;;1.23;;
19985;SDS011;10154;52.474;10.768;2023-01-05T09:07:52;12.17;;;1.60;;
19985;SDS011;10154;52.474;10.768;2023-01-05T09:10:17;7.53;;;1.40;;
19985;SDS011;10154;52.474;10.768;2023-01-05T09:12:43;4.50;;;1.10;;
19985;SDS011;10154;52.474;10.768;2023-01-05T09:15:09;9.43;;;1.10;;
19985;SDS011;10154;52.474;10.768;2023-01-05T09:17:35;5.70;;;0.90;;
19985;SDS011;10154;52.474;10.768;2023-01-05T09:20:00;4.23;;;0.73;;
19985;SDS011;10154;52.474;10.768;2023-01-05T09:22:27;9.53;;;1.30;;
19985;SDS011;10154;52.474;10.768;2023-01-05T09:24:55;5.73;;;1.03;;
19985;SDS011;10154;52.474;10.768;2023-01-05T09:27:20;7.03;;;1.10;;
19985;SDS011;10154;52.474;10.768;2023-01-05T09:29:45;8.67;;;1.10;;
19985;SDS011;10154;52.474;10.768;2023-01-05T09:32:11;3.90;;;0.63;;
19985;SDS011;10154;52.474;10.768;2023-01-05T09:34:36;6.87;;;1.13;;
19985;SDS011;10154;52.474;10.768;2023-01-05T09:37:02;4.87;;;1.00;;
19985;SDS011;10154;52.474;10.768;2023-01-05T09:39:27;6.63;;;0.80;;
19985;SDS011;10154;52.474;10.768;2023-01-05T09:41:54;5.10;;;1.10;;
19985;SDS011;10154;52.474;10.768;2023-01-05T09:47:10;8.53;;;1.30;;
19985;SDS011;10154;52.474;10.768;2023-01-05T09:49:38;3.33;;;0.87;;
19985;SDS011;10154;52.474;10.768;2023-01-05T09:52:04;6.53;;;0.90;;
19985;SDS011;10154;52.474;10.768;2023-01-05T09:54:33;2.03;;;1.00;;
19985;SDS011;10154;52.474;10.768;2023-01-05T09:56:59;4.57;;;0.83;;
19985;SDS011;10154;52.474;10.768;2023-01-05T09:59:28;6.07;;;0.87;;
19985;SDS011;10154;52.474;10.768;2023-01-05T10:01:57;2.73;;;0.73;;
19985;SDS011;10154;52.474;10.768;2023-01-05T10:04:24;2.97;;;0.93;;
19985;SDS011;10154;52.474;10.768;2023-01-05T10:06:52;7.93;;;1.20;;
19985;SDS011;10154;52.474;10.768;2023-01-05T10:09:28;6.30;;;1.40;;
19985;SDS011;10154;52.474;10.768;2023-01-05T10:12:04;5.87;;;1.10;;
19985;SDS011;10154;52.474;10.768;2023-01-05T10:15:01;5.93;;;1.00;;
19985;SDS011;10154;52.474;10.768;2023-01-05T10:17:31;5.07;;;1.10;;
19985;SDS011;10154;52.474;10.768;2023-01-05T10:19:58;2.60;;;0.63;;
19985;SDS011;10154;52.474;10.768;2023-01-05T10:27:52;5.40;;;1.27;;
19985;SDS011;10154;52.474;10.768;2023-01-05T10:30:23;6.37;;;1.10;;
19985;SDS011;10154;52.474;10.768;2023-01-05T10:35:28;5.17;;;1.20;;
19985;SDS011;10154;52.474;10.768;2023-01-05T10:38:12;3.67;;;1.07;;
19985;SDS011;10154;52.474;10.768;2023-01-05T10:40:51;8.43;;;1.40;;
19985;SDS011;10154;52.474;10.768;2023-01-05T10:46:01;4.93;;;0.93;;
19985;SDS011;10154;52.474;10.768;2023-01-05T10:48:28;10.53;;;1.80;;
19985;SDS011;10154;52.474;10.768;2023-01-05T10:50:55;6.83;;;1.47;;
19985;SDS011;10154;52.474;10.768;2023-01-05T10:53:22;7.80;;;1.40;;
19985;SDS011;10154;52.474;10.768;2023-01-05T10:58:22;8.70;;;1.30;;
19985;SDS011;10154;52.474;10.768;2023-01-05T11:00:48;5.73;;;1.10;;
19985;SDS011;10154;52.474;10.768;2023-01-05T11:03:15;6.37;;;1.20;;
19985;SDS011;10154;52.474;10.768;2023-01-05T11:05:45;10.03;;;2.27;;
19985;SDS011;10154;52.474;10.768;2023-01-05T11:08:18;6.57;;;1.63;;
19985;SDS011;10154;52.474;10.768;2023-01-05T11:10:52;6.53;;;1.40;;
19985;SDS011;10154;52.474;10.768;2023-01-05T11:16:06;7.27;;;1.30;;
19985;SDS011;10154;52.474;10.768;2023-01-05T11:21:24;5.80;;;1.00;;
19985;SDS011;10154;52.474;10.768;2023-01-05T11:23:58;4.60;;;0.80;;
19985;SDS011;10154;52.474;10.768;2023-01-05T11:36:49;4.43;;;1.27;;
19985;SDS011;10154;52.474;10.768;2023-01-05T11:39:18;6.10;;;1.00;;
19985;SDS011;10154;52.474;10.768;2023-01-05T11:41:50;7.53;;;1.13;;
19985;SDS011;10154;52.474;10.768;2023-01-05T11:44:17;2.33;;;0.90;;
19985;SDS011;10154;52.474;10.768;2023-01-05T11:46:46;6.07;;;1.17;;
19985;SDS011;10154;52.474;10.768;2023-01-05T11:49:12;4.57;;;0.90;;
19985;SDS011;10154;52.474;10.768;2023-01-05T11:51:42;6.73;;;1.00;;
19985;SDS011;10154;52.474;10.768;2023-01-05T11:54:23;4.03;;;1.13;;
19985;SDS011;10154;52.474;10.768;2023-01-05T11:57:07;5.00;;;1.20;;
19985;SDS011;10154;52.474;10.768;2023-01-05T11:59:38;5.90;;;1.07;;
19985;SDS011;10154;52.474;10.768;2023-01-05T12:02:28;8.40;;;1.27;;
19985;SDS011;10154;52.474;10.768;2023-01-05T12:07:35;3.10;;;0.67;;
19985;SDS011;10154;52.474;10.768;2023-01-05T12:13:16;3.10;;;0.80;;
19985;SDS011;10154;52.474;10.768;2023-01-05T12:21:21;4.20;;;0.80;;
19985;SDS011;10154;52.474;10.768;2023-01-05T12:26:32;2.87;;;0.80;;
19985;SDS011;10154;52.474;10.768;2023-01-05T12:45:31;4.67;;;0.80;;
19985;SDS011;10154;52.474;10.768;2023-01-05T12:56:24;3.90;;;0.80;;
19985;SDS011;10154;52.474;10.768;2023-01-05T13:01:55;4.03;;;1.07;;
19985;SDS011;10154;52.474;10.768;2023-01-05T13:07:32;4.70;;;0.97;;
19985;SDS011;10154;52.474;10.768;2023-01-05T13:10:17;5.93;;;0.97;;
19985;SDS011;10154;52.474;10.768;2023-01-05T13:12:46;4.07;;;0.83;;
19985;SDS011;10154;52.474;10.768;2023-01-05T13:15:20;8.17;;;0.97;;
19985;SDS011;10154;52.474;10.768;2023-01-05T13:17:49;2.97;;;0.80;;
19985;SDS011;10154;52.474;10.768;2023-01-05T13:22:49;3.03;;;0.70;;
19985;SDS011;10154;52.474;10.768;2023-01-05T13:25:18;4.00;;;0.90;;
19985;SDS011;10154;52.474;10.768;2023-01-05T13:27:45;7.13;;;1.10;;
19985;SDS011;10154;52.474;10.768;2023-01-05T13:32:53;4.57;;;0.87;;
19985;SDS011;10154;52.474;10.768;2023-01-05T13:43:46;4.40;;;0.57;;
19985;SDS011;10154;52.474;10.768;2023-01-05T13:46:39;6.13;;;0.93;;
19985;SDS011;10154;52.474;10.768;2023-01-05T13:52:22;5.80;;;0.80;;
19985;SDS011;10154;52.474;10.768;2023-01-05T13:54:56;6.40;;;1.00;;
19985;SDS011;10154;52.474;10.768;2023-01-05T13:57:26;10.93;;;1.07;;
19985;SDS011;10154;52.474;10.768;2023-01-05T13:59:54;5.03;;;0.67;;
19985;SDS011;10154;52.474;10.768;2023-01-05T14:02:35;4.33;;;0.83;;
19985;SDS011;10154;52.474;10.768;2023-01-05T14:05:05;4.77;;;0.77;;
19985;SDS011;10154;52.474;10.768;2023-01-05T14:07:38;5.37;;;0.90;;
19985;SDS011;10154;52.474;10.768;2023-01-05T14:10:04;3.07;;;0.70;;
19985;SDS011;10154;52.474;10.768;2023-01-05T14:25:54;9.67;;;1.07;;
19985;SDS011;10154;52.474;10.768;2023-01-05T14:33:57;11.87;;;0.80;;
19985;SDS011;10154;52.474;10.768;2023-01-05T14:38:48;7.83;;;1.10;;
19985;SDS011;10154;52.474;10.768;2023-01-05T14:41:14;6.33;;;1.10;;
19985;SDS011;10154;52.474;10.768;2023-01-05T14:43:53;4.63;;;1.00;;
19985;SDS011;10154;52.474;10.768;2023-01-05T14:46:21;5.00;;;0.87;;
19985;SDS011;10154;52.474;10.768;2023-01-05T14:49:05;7.27;;;1.13;;
19985;SDS011;10154;52.474;10.768;2023-01-05T14:51:33;6.30;;;1.10;;
19985;SDS011;10154;52.474;10.768;2023-01-05T14:54:00;5.60;;;1.03;;
19985;SDS011;10154;52.474;10.768;2023-01-05T14:56:28;3.53;;;0.90;;
19985;SDS011;10154;52.474;10.768;2023-01-05T14:59:11;4.83;;;0.80;;
19985;SDS011;10154;52.474;10.768;2023-01-05T15:01:57;7.10;;;0.97;;
19985;SDS011;10154;52.474;10.768;2023-01-05T15:04:28;6.50;;;0.93;;
19985;SDS011;10154;52.474;10.768;2023-01-05T15:07:13;7.20;;;0.83;;
19985;SDS011;10154;52.474;10.768;2023-01-05T15:13:13;4.23;;;0.90;;
19985;SDS011;10154;52.474;10.768;2023-01-05T15:21:51;3.57;;;0.57;;
19985;SDS011;10154;52.474;10.768;2023-01-05T15:27:46;5.03;;;0.90;;
19985;SDS011;10154;52.474;10.768;2023-01-05T15:30:50;4.20;;;1.53;;
19985;SDS011;10154;52.474;10.768;2023-01-05T15:33:36;6.90;;;1.60;;
19985;SDS011;10154;52.474;10.768;2023-01-05T15:36:33;5.23;;;1.30;;
19985;SDS011;10154;52.474;10.768;2023-01-05T15:39:05;5.00;;;1.30;;
19985;SDS011;10154;52.474;10.768;2023-01-05T15:41:49;5.57;;;1.00;;
19985;SDS011;10154;52.474;10.768;2023-01-05T15:44:16;4.90;;;1.20;;
19985;SDS011;10154;52.474;10.768;2023-01-05T15:46:43;7.53;;;1.10;;
19985;SDS011;10154;52.474;10.768;2023-01-05T15:49:16;10.33;;;1.10;;
19985;SDS011;10154;52.474;10.768;2023-01-05T15:51:48;9.83;;;1.33;;
19985;SDS011;10154;52.474;10.768;2023-01-05T15:54:22;2.63;;;0.97;;
19985;SDS011;10154;52.474;10.768;2023-01-05T15:56:50;7.03;;;1.00;;
19985;SDS011;10154;52.474;10.768;2023-01-05T16:01:59;5.47;;;1.10;;
19985;SDS011;10154;52.474;10.768;2023-01-05T16:04:24;4.77;;;1.40;;
19985;SDS011;10154;52.474;10.768;2023-01-05T16:06:57;7.97;;;1.10;;
19985;SDS011;10154;52.474;10.768;2023-01-05T16:09:31;6.07;;;1.20;;
19985;SDS011;10154;52.474;10.768;2023-01-05T16:12:03;5.80;;;0.90;;
19985;SDS011;10154;52.474;10.768;2023-01-05T16:14:33;7.20;;;1.10;;
19985;SDS011;10154;52.474;10.768;2023-01-05T16:19:52;5.30;;;1.40;;
19985;SDS011;10154;52.474;10.768;2023-01-05T16:25:12;4.30;;;1.23;;
19985;SDS011;10154;52.474;10.768;2023-01-05T16:27:51;3.20;;;1.20;;
19985;SDS011;10154;52.474;10.768;2023-01-05T16:32:58;7.20;;;1.50;;
19985;SDS011;10154;52.474;10.768;2023-01-05T16:35:31;5.70;;;1.40;;
19985;SDS011;10154;52.474;10.768;2023-01-05T16:40:37;11.03;;;1.67;;
19985;SDS011;10154;52.474;10.768;2023-01-05T16:43:20;7.27;;;1.40;;
19985;SDS011;10154;52.474;10.768;2023-01-05T16:45:46;5.77;;;1.67;;
19985;SDS011;10154;52.474;10.768;2023-01-05T16:49:20;6.60;;;1.80;;
19985;SDS011;10154;52.474;10.768;2023-01-05T16:51:07;6.47;;;1.97;;
19985;SDS011;10154;52.474;10.768;2023-01-05T16:53:34;6.53;;;2.07;;
19985;SDS011;10154;52.474;10.768;2023-01-05T16:56:43;6.53;;;1.93;;
19985;SDS011;10154;52.474;10.768;2023-01-05T16:58:58;8.90;;;1.87;;
19985;SDS011;10154;52.474;10.768;2023-01-05T17:01:34;6.23;;;2.30;;
19985;SDS011;10154;52.474;10.768;2023-01-05T17:04:33;6.10;;;1.87;;
19985;SDS011;10154;52.474;10.768;2023-01-05T17:06:51;7.80;;;2.03;;
19985;SDS011;10154;52.474;10.768;2023-01-05T17:09:21;9.43;;;2.03;;
19985;SDS011;10154;52.474;10.768;2023-01-05T17:11:50;8.83;;;1.97;;
19985;SDS011;10154;52.474;10.768;2023-01-05T17:14:16;12.33;;;2.47;;
19985;SDS011;10154;52.474;10.768;2023-01-05T17:16:42;15.23;;;2.80;;
19985;SDS011;10154;52.474;10.768;2023-01-05T17:19:11;14.07;;;2.43;;
19985;SDS011;10154;52.474;10.768;2023-01-05T17:21:38;10.17;;;3.13;;
19985;SDS011;10154;52.474;10.768;2023-01-05T17:24:05;11.10;;;3.13;;
19985;SDS011;10154;52.474;10.768;2023-01-05T17:26:34;7.23;;;2.93;;